Aviation Digital Data Service (ADDS)

Output produced by METARs form (0541 UTC 22 October 2021)
found at http://www.aviationweather.gov/metar/data/
 
KDRO 220453Z AUTO 01006KT 10SM CLR 03/M05 A3035 RMK AO2 SLP257 T00331050
KDRO 220525Z 2206/2306 04005KT P6SM SKC 
     FM221800 24008G18KT P6SM FEW250 
     FM230200 34005KT P6SM SKC
       
KFMN 220453Z AUTO 04005KT 10SM CLR 04/M07 A3030 RMK AO2 SLP249 T00441067
KFMN 220520Z 2206/2306 VRB06KT P6SM SKC 
     FM220800 07008KT P6SM SCT200 
     FM221700 21006KT P6SM FEW200 
     FM230100 02005KT P6SM FEW200